createdAt,value
2023-03-24T00:00:41.030Z,1.38
2023-03-24T00:06:44.887Z,1.92
2023-03-24T00:12:50.363Z,1.50
2023-03-24T00:18:54.469Z,1.33
2023-03-24T00:24:58.188Z,1.70
2023-03-24T00:31:03.565Z,1.63
2023-03-24T00:37:08.880Z,1.65
2023-03-24T00:43:13.408Z,0.90
2023-03-24T00:49:18.520Z,0.77
2023-03-24T00:55:23.142Z,0.90
2023-03-24T01:01:29.387Z,0.70
2023-03-24T01:07:34.728Z,0.70
2023-03-24T01:13:38.253Z,0.52
2023-03-24T01:19:42.647Z,0.60
2023-03-24T01:25:48.312Z,0.60
2023-03-24T01:31:52.082Z,0.80
2023-03-24T01:37:55.787Z,0.93
2023-03-24T01:44:01.596Z,0.80
2023-03-24T01:50:05.524Z,0.80
2023-03-24T01:56:09.666Z,1.08
2023-03-24T02:02:14.884Z,1.15
2023-03-24T02:08:20.872Z,0.98
2023-03-24T02:14:24.720Z,1.10
2023-03-24T02:20:38.546Z,1.17
2023-03-24T02:26:49.700Z,1.23
2023-03-24T02:33:14.436Z,1.10
2023-03-24T02:39:42.195Z,1.17
2023-03-24T02:45:51.986Z,1.00
2023-03-24T02:51:59.950Z,1.40
2023-03-24T02:58:05.019Z,1.38
2023-03-24T03:04:11.652Z,1.65
2023-03-24T03:10:17.285Z,1.67
2023-03-24T03:16:25.486Z,2.13
2023-03-24T03:22:33.417Z,1.55
2023-03-24T03:28:38.957Z,1.50
2023-03-24T03:34:44.763Z,1.80
2023-03-24T03:40:53.091Z,1.30
2023-03-24T03:46:57.265Z,1.75
2023-03-24T03:53:01.186Z,1.20
2023-03-24T03:59:06.279Z,1.33
2023-03-24T04:05:15.478Z,1.45
2023-03-24T04:11:33.850Z,1.63
2023-03-24T04:17:46.220Z,1.60
2023-03-24T04:23:55.716Z,2.25
2023-03-24T04:30:06.294Z,1.50
2023-03-24T04:36:18.946Z,1.73
2023-03-24T04:42:25.560Z,1.20
2023-03-24T04:48:29.178Z,1.63
2023-03-24T04:54:34.102Z,1.80
2023-03-24T05:00:38.002Z,1.88
2023-03-24T05:06:42.116Z,1.75
2023-03-24T05:12:46.853Z,1.15
2023-03-24T05:18:50.510Z,1.48
2023-03-24T05:24:53.918Z,1.85
2023-03-24T05:30:58.851Z,1.90
2023-03-24T05:37:02.293Z,1.35
2023-03-24T05:43:05.737Z,1.75
2023-03-24T05:49:10.744Z,1.65
2023-03-24T05:55:16.084Z,1.27
2023-03-24T06:01:19.514Z,1.30
2023-03-24T06:07:26.630Z,1.73
2023-03-24T06:13:30.285Z,1.75
2023-03-24T06:19:34.798Z,1.98
2023-03-24T06:25:44.757Z,2.58
2023-03-24T06:31:50.111Z,3.88
2023-03-24T06:37:53.540Z,3.50
2023-03-24T06:43:58.305Z,2.10
2023-03-24T06:50:02.607Z,3.28
2023-03-24T06:56:06.235Z,3.20
2023-03-24T07:02:12.641Z,2.20
2023-03-24T07:08:36.551Z,2.55
2023-03-24T07:14:39.398Z,2.38
2023-03-24T07:20:44.458Z,2.03
2023-03-24T07:26:48.121Z,2.10
2023-03-24T07:32:51.937Z,1.90
2023-03-24T07:38:56.781Z,1.95
2023-03-24T07:45:00.587Z,1.65
2023-03-24T07:51:03.987Z,2.17
2023-03-24T07:57:10.983Z,1.70
2023-03-24T08:03:15.612Z,1.70
2023-03-24T08:09:19.668Z,2.20
2023-03-24T08:15:25.036Z,1.90
2023-03-24T08:21:28.751Z,1.33
2023-03-24T08:27:32.200Z,2.00
2023-03-24T08:33:37.206Z,2.15
2023-03-24T08:39:41.183Z,1.83
2023-03-24T08:45:44.606Z,1.90
2023-03-24T08:51:49.598Z,2.28
2023-03-24T08:57:53.438Z,1.83
2023-03-24T09:03:58.556Z,1.63
2023-03-24T09:10:03.987Z,1.92
2023-03-24T09:16:07.700Z,1.80
2023-03-24T09:22:11.147Z,1.77
2023-03-24T09:28:16.312Z,1.77
2023-03-24T09:34:19.720Z,1.33
2023-03-24T09:40:25.419Z,1.25
2023-03-24T09:46:32.424Z,0.80
2023-03-24T09:52:36.636Z,1.00
2023-03-24T09:58:41.655Z,0.90
2023-03-24T10:04:46.571Z,1.30
2023-03-24T10:10:55.997Z,1.00
2023-03-24T10:17:02.074Z,1.10
2023-03-24T10:23:13.042Z,1.63
2023-03-24T10:29:23.278Z,1.23
2023-03-24T10:35:29.637Z,1.30
2023-03-24T10:41:35.128Z,1.15
2023-03-24T10:47:38.728Z,1.20
2023-03-24T10:53:42.638Z,1.10
2023-03-24T10:59:54.276Z,1.27
2023-03-24T11:06:01.363Z,1.35
2023-03-24T11:12:04.825Z,1.40
2023-03-24T11:18:16.698Z,1.17
2023-03-24T11:24:21.183Z,1.52
2023-03-24T11:30:24.880Z,1.58
2023-03-24T11:36:48.598Z,1.67
2023-03-24T11:42:53.850Z,1.10
2023-03-24T11:48:58.760Z,1.00
2023-03-24T11:55:04.888Z,0.82
2023-03-24T12:01:10.003Z,1.65
2023-03-24T12:07:28.784Z,1.33
2023-03-24T12:13:37.935Z,1.25
2023-03-24T12:19:56.010Z,1.30
2023-03-24T12:26:06.962Z,1.27
2023-03-24T12:32:18.545Z,1.08
2023-03-24T12:38:27.385Z,1.05
2023-03-24T12:44:48.521Z,1.27
2023-03-24T12:51:02.394Z,1.02
2023-03-24T12:57:07.751Z,0.90
2023-03-24T13:03:14.598Z,0.80
2023-03-24T13:09:25.949Z,0.90
2023-03-24T13:15:32.788Z,0.50
2023-03-24T13:21:37.782Z,1.10
2023-03-24T13:27:43.538Z,0.80
2023-03-24T13:33:47.298Z,1.00
2023-03-24T13:39:52.874Z,1.50
2023-03-24T13:46:02.410Z,1.15
2023-03-24T13:52:07.652Z,0.68
2023-03-24T13:58:14.978Z,1.20
2023-03-24T14:04:30.061Z,0.88
2023-03-24T14:10:44.346Z,0.73
2023-03-24T14:16:53.058Z,0.90
2023-03-24T14:22:57.927Z,0.77
2023-03-24T14:29:01.462Z,1.23
2023-03-24T14:35:05.659Z,0.85
2023-03-24T14:41:14.882Z,1.05
2023-03-24T14:47:18.672Z,0.90
2023-03-24T14:53:22.426Z,0.88
2023-03-24T14:59:31.291Z,0.85
2023-03-24T15:05:37.260Z,1.15
2023-03-24T15:11:42.099Z,0.93
2023-03-24T15:17:47.356Z,0.80
2023-03-24T15:23:51.223Z,0.82
2023-03-24T15:29:59.495Z,0.90
2023-03-24T15:36:04.422Z,1.00
2023-03-24T15:42:08.501Z,1.00
2023-03-24T15:48:15.876Z,0.70
2023-03-24T15:54:24.881Z,0.77
2023-03-24T16:00:29.842Z,0.65
2023-03-24T16:06:35.623Z,0.77
2023-03-24T16:12:40.451Z,0.98
2023-03-24T16:18:44.643Z,0.93
2023-03-24T16:24:48.219Z,1.00
2023-03-24T16:30:57.176Z,0.77
2023-03-24T16:37:00.799Z,0.70
2023-03-24T16:43:04.498Z,0.68
2023-03-24T16:49:10.825Z,0.88
2023-03-24T16:55:14.242Z,0.80
2023-03-24T17:01:26.563Z,1.10
2023-03-24T17:07:31.434Z,0.80
2023-03-24T17:13:35.176Z,0.70
2023-03-24T17:19:41.961Z,0.57
2023-03-24T17:25:46.829Z,0.70
2023-03-24T17:31:50.598Z,1.00
2023-03-24T17:37:54.090Z,0.80
2023-03-24T17:43:59.297Z,0.90
2023-03-24T17:50:04.704Z,1.10
2023-03-24T17:56:09.009Z,0.80
2023-03-24T18:02:14.956Z,0.98
2023-03-24T18:08:18.717Z,1.00
2023-03-24T18:14:22.122Z,1.58
2023-03-24T18:20:27.533Z,1.40
2023-03-24T18:26:31.017Z,0.85
2023-03-24T18:32:36.032Z,0.90
2023-03-24T18:38:40.903Z,0.80
2023-03-24T18:44:45.764Z,1.20
2023-03-24T18:50:52.020Z,1.00
2023-03-24T18:56:57.034Z,1.70
2023-03-24T19:03:00.882Z,1.10
2023-03-24T19:09:05.411Z,1.17
2023-03-24T19:15:10.842Z,1.88
2023-03-24T19:21:14.559Z,1.20
2023-03-24T19:27:18.973Z,0.70
2023-03-24T19:33:24.101Z,0.75
2023-03-24T19:39:28.253Z,0.80
2023-03-24T19:45:31.736Z,0.68
2023-03-24T19:51:36.513Z,0.80
2023-03-24T19:57:39.948Z,1.25
2023-03-24T20:03:43.495Z,1.13
2023-03-24T20:09:48.738Z,1.35
2023-03-24T20:15:52.531Z,0.90
2023-03-24T20:21:56.323Z,0.95
2023-03-24T20:28:01.506Z,1.33
2023-03-24T20:34:05.141Z,1.27
2023-03-24T20:40:10.443Z,1.10
2023-03-24T20:46:17.505Z,1.58
2023-03-24T20:52:23.071Z,1.30
2023-03-24T20:58:27.641Z,1.10
2023-03-24T21:04:32.481Z,1.38
2023-03-24T21:10:37.140Z,1.45
2023-03-24T21:16:40.716Z,0.85
2023-03-24T21:23:04.840Z,1.20
2023-03-24T21:29:08.443Z,1.20
2023-03-24T21:35:12.045Z,1.90
2023-03-24T21:41:16.919Z,1.70
2023-03-24T21:47:20.302Z,1.30
2023-03-24T21:53:26.200Z,1.65
2023-03-24T21:59:31.916Z,1.27
2023-03-24T22:05:35.317Z,1.35
2023-03-24T22:11:42.911Z,1.15
2023-03-24T22:17:48.007Z,1.60
2023-03-24T22:23:51.470Z,1.13
2023-03-24T22:29:55.156Z,0.93
2023-03-24T22:36:00.501Z,1.10
2023-03-24T22:42:04.088Z,1.10
2023-03-24T22:48:08.152Z,1.27
2023-03-24T22:54:12.933Z,1.48
2023-03-24T23:00:19.317Z,1.48
2023-03-24T23:06:22.722Z,2.40
2023-03-24T23:12:27.781Z,1.00
2023-03-24T23:18:31.609Z,0.77
2023-03-24T23:24:39.382Z,1.40
2023-03-24T23:30:44.466Z,0.90
2023-03-24T23:36:50.433Z,0.90
2023-03-24T23:42:53.834Z,0.98
2023-03-24T23:48:58.666Z,1.15
2023-03-24T23:55:03.792Z,1.40
